sensor_id;sensor_type;location;lat;lon;timestamp;temperature;humidity
23475;DHT22;11910;52.086;21.066;2024-03-17T00:00:31;8.40;99.90
23475;DHT22;11910;52.086;21.066;2024-03-17T00:07:07;8.40;99.90
23475;DHT22;11910;52.086;21.066;2024-03-17T00:12:51;8.50;99.90
23475;DHT22;11910;52.086;21.066;2024-03-17T00:15:16;8.40;99.90
23475;DHT22;11910;52.086;21.066;2024-03-17T00:17:42;8.40;99.90
23475;DHT22;11910;52.086;21.066;2024-03-17T00:20:08;8.40;99.90
23475;DHT22;11910;52.086;21.066;2024-03-17T00:22:46;8.40;99.90
23475;DHT22;11910;52.086;21.066;2024-03-17T00:25:12;8.40;99.90
23475;DHT22;11910;52.086;21.066;2024-03-17T00:27:38;8.40;99.90
23475;DHT22;11910;52.086;21.066;2024-03-17T00:30:07;8.40;99.90
23475;DHT22;11910;52.086;21.066;2024-03-17T00:32:38;8.40;99.90
23475;DHT22;11910;52.086;21.066;2024-03-17T00:35:05;8.40;99.90
23475;DHT22;11910;52.086;21.066;2024-03-17T00:37:31;8.40;99.90
23475;DHT22;11910;52.086;21.066;2024-03-17T00:39:56;8.40;99.90
23475;DHT22;11910;52.086;21.066;2024-03-17T00:42:23;8.40;99.90
23475;DHT22;11910;52.086;21.066;2024-03-17T00:44:48;8.50;99.90
23475;DHT22;11910;52.086;21.066;2024-03-17T00:47:14;8.40;99.90
23475;DHT22;11910;52.086;21.066;2024-03-17T00:49:39;8.40;99.90
23475;DHT22;11910;52.086;21.066;2024-03-17T00:52:08;8.40;99.90
23475;DHT22;11910;52.086;21.066;2024-03-17T00:54:33;8.30;99.90
23475;DHT22;11910;52.086;21.066;2024-03-17T00:56:59;8.30;99.90
23475;DHT22;11910;52.086;21.066;2024-03-17T00:59:25;8.20;99.90
23475;DHT22;11910;52.086;21.066;2024-03-17T01:01:51;8.20;99.90
23475;DHT22;11910;52.086;21.066;2024-03-17T01:04:17;8.10;99.90
23475;DHT22;11910;52.086;21.066;2024-03-17T01:06:42;8.10;99.90
23475;DHT22;11910;52.086;21.066;2024-03-17T01:09:08;8.00;99.90
23475;DHT22;11910;52.086;21.066;2024-03-17T01:11:34;8.00;99.90
23475;DHT22;11910;52.086;21.066;2024-03-17T01:14:00;8.00;99.90
23475;DHT22;11910;52.086;21.066;2024-03-17T01:16:26;7.90;99.90
23475;DHT22;11910;52.086;21.066;2024-03-17T01:18:52;7.90;99.90
23475;DHT22;11910;52.086;21.066;2024-03-17T01:21:19;7.90;99.90
23475;DHT22;11910;52.086;21.066;2024-03-17T01:23:45;7.90;99.90
23475;DHT22;11910;52.086;21.066;2024-03-17T01:26:10;7.90;99.90
23475;DHT22;11910;52.086;21.066;2024-03-17T01:28:36;7.90;99.90
23475;DHT22;11910;52.086;21.066;2024-03-17T01:31:06;7.90;99.90
23475;DHT22;11910;52.086;21.066;2024-03-17T01:33:32;7.90;99.90
23475;DHT22;11910;52.086;21.066;2024-03-17T01:35:57;7.90;99.90
23475;DHT22;11910;52.086;21.066;2024-03-17T01:38:23;7.80;99.90
23475;DHT22;11910;52.086;21.066;2024-03-17T01:40:49;7.80;99.90
23475;DHT22;11910;52.086;21.066;2024-03-17T01:43:14;7.80;99.90
23475;DHT22;11910;52.086;21.066;2024-03-17T01:45:40;7.80;99.90
23475;DHT22;11910;52.086;21.066;2024-03-17T01:48:13;7.90;99.90
23475;DHT22;11910;52.086;21.066;2024-03-17T01:50:41;7.90;99.90
23475;DHT22;11910;52.086;21.066;2024-03-17T01:53:09;7.80;99.90
23475;DHT22;11910;52.086;21.066;2024-03-17T01:55:37;7.80;99.90
23475;DHT22;11910;52.086;21.066;2024-03-17T01:58:04;7.80;99.90
23475;DHT22;11910;52.086;21.066;2024-03-17T02:00:34;7.80;99.90
23475;DHT22;11910;52.086;21.066;2024-03-17T02:03:03;7.80;99.90
23475;DHT22;11910;52.086;21.066;2024-03-17T02:05:29;7.80;99.90
23475;DHT22;11910;52.086;21.066;2024-03-17T02:07:55;7.80;99.90
23475;DHT22;11910;52.086;21.066;2024-03-17T02:10:21;7.70;99.90
23475;DHT22;11910;52.086;21.066;2024-03-17T02:12:47;7.80;99.90
23475;DHT22;11910;52.086;21.066;2024-03-17T02:15:13;7.70;99.90
23475;DHT22;11910;52.086;21.066;2024-03-17T02:17:39;7.70;99.90
23475;DHT22;11910;52.086;21.066;2024-03-17T02:20:06;7.70;99.90
23475;DHT22;11910;52.086;21.066;2024-03-17T02:22:39;7.60;99.90
23475;DHT22;11910;52.086;21.066;2024-03-17T02:25:06;7.60;99.90
23475;DHT22;11910;52.086;21.066;2024-03-17T02:27:35;7.60;99.90
23475;DHT22;11910;52.086;21.066;2024-03-17T02:30:01;7.60;99.90
23475;DHT22;11910;52.086;21.066;2024-03-17T02:32:27;7.50;99.90
23475;DHT22;11910;52.086;21.066;2024-03-17T02:34:53;7.60;99.90
23475;DHT22;11910;52.086;21.066;2024-03-17T02:37:19;7.60;99.90
23475;DHT22;11910;52.086;21.066;2024-03-17T02:39:44;7.60;99.90
23475;DHT22;11910;52.086;21.066;2024-03-17T02:42:10;7.60;99.90
23475;DHT22;11910;52.086;21.066;2024-03-17T02:44:38;7.50;99.90
23475;DHT22;11910;52.086;21.066;2024-03-17T02:47:05;7.60;99.90
23475;DHT22;11910;52.086;21.066;2024-03-17T02:49:34;7.50;99.90
23475;DHT22;11910;52.086;21.066;2024-03-17T02:52:05;7.50;99.90
23475;DHT22;11910;52.086;21.066;2024-03-17T02:54:32;7.40;99.90
23475;DHT22;11910;52.086;21.066;2024-03-17T02:56:58;7.50;99.90
23475;DHT22;11910;52.086;21.066;2024-03-17T02:59:24;7.40;99.90
23475;DHT22;11910;52.086;21.066;2024-03-17T03:01:50;7.40;99.90
23475;DHT22;11910;52.086;21.066;2024-03-17T03:04:16;7.40;99.90
23475;DHT22;11910;52.086;21.066;2024-03-17T03:06:42;7.40;99.90
23475;DHT22;11910;52.086;21.066;2024-03-17T03:09:08;7.30;99.90
23475;DHT22;11910;52.086;21.066;2024-03-17T03:11:39;7.30;99.90
23475;DHT22;11910;52.086;21.066;2024-03-17T03:14:06;7.40;99.90
23475;DHT22;11910;52.086;21.066;2024-03-17T03:16:32;7.40;99.90
23475;DHT22;11910;52.086;21.066;2024-03-17T03:18:58;7.30;99.90
23475;DHT22;11910;52.086;21.066;2024-03-17T03:21:24;7.30;99.90
23475;DHT22;11910;52.086;21.066;2024-03-17T03:23:51;7.40;99.90
23475;DHT22;11910;52.086;21.066;2024-03-17T03:26:17;7.30;99.90
23475;DHT22;11910;52.086;21.066;2024-03-17T03:28:43;7.40;99.90
23475;DHT22;11910;52.086;21.066;2024-03-17T03:31:13;7.40;99.90
23475;DHT22;11910;52.086;21.066;2024-03-17T03:33:40;7.40;99.90
23475;DHT22;11910;52.086;21.066;2024-03-17T03:36:11;7.40;99.90
23475;DHT22;11910;52.086;21.066;2024-03-17T03:38:37;7.40;99.90
23475;DHT22;11910;52.086;21.066;2024-03-17T03:41:10;7.40;99.90
23475;DHT22;11910;52.086;21.066;2024-03-17T03:43:37;7.40;99.90
23475;DHT22;11910;52.086;21.066;2024-03-17T03:46:03;7.40;99.90
23475;DHT22;11910;52.086;21.066;2024-03-17T03:48:29;7.50;99.90
23475;DHT22;11910;52.086;21.066;2024-03-17T03:50:55;7.40;99.90
23475;DHT22;11910;52.086;21.066;2024-03-17T03:53:21;7.40;99.90
23475;DHT22;11910;52.086;21.066;2024-03-17T03:55:48;7.50;99.90
23475;DHT22;11910;52.086;21.066;2024-03-17T03:58:14;7.50;99.90
23475;DHT22;11910;52.086;21.066;2024-03-17T04:00:40;7.50;99.90
23475;DHT22;11910;52.086;21.066;2024-03-17T04:03:26;7.50;99.90
23475;DHT22;11910;52.086;21.066;2024-03-17T04:06:05;7.50;99.90
23475;DHT22;11910;52.086;21.066;2024-03-17T04:08:32;7.50;99.90
23475;DHT22;11910;52.086;21.066;2024-03-17T04:10:58;7.40;99.90
23475;DHT22;11910;52.086;21.066;2024-03-17T04:13:24;7.40;99.90
23475;DHT22;11910;52.086;21.066;2024-03-17T04:15:50;7.40;99.90
23475;DHT22;11910;52.086;21.066;2024-03-17T04:18:21;7.30;99.90
23475;DHT22;11910;52.086;21.066;2024-03-17T04:20:46;7.30;99.90
23475;DHT22;11910;52.086;21.066;2024-03-17T04:23:12;7.20;99.90
23475;DHT22;11910;52.086;21.066;2024-03-17T04:25:39;7.20;99.90
23475;DHT22;11910;52.086;21.066;2024-03-17T04:28:07;7.10;99.90
23475;DHT22;11910;52.086;21.066;2024-03-17T04:30:32;7.10;99.90
23475;DHT22;11910;52.086;21.066;2024-03-17T04:32:58;7.10;99.90
23475;DHT22;11910;52.086;21.066;2024-03-17T04:35:24;7.10;99.90
23475;DHT22;11910;52.086;21.066;2024-03-17T04:37:49;7.00;99.90
23475;DHT22;11910;52.086;21.066;2024-03-17T04:40:15;7.00;99.90
23475;DHT22;11910;52.086;21.066;2024-03-17T04:42:40;7.00;99.90
23475;DHT22;11910;52.086;21.066;2024-03-17T04:45:07;7.00;99.90
23475;DHT22;11910;52.086;21.066;2024-03-17T04:47:35;7.00;99.90
23475;DHT22;11910;52.086;21.066;2024-03-17T04:50:00;7.00;99.90
23475;DHT22;11910;52.086;21.066;2024-03-17T04:52:26;7.00;99.90
23475;DHT22;11910;52.086;21.066;2024-03-17T04:54:52;7.00;99.90
23475;DHT22;11910;52.086;21.066;2024-03-17T04:57:17;7.00;99.90
23475;DHT22;11910;52.086;21.066;2024-03-17T04:59:43;7.00;99.90
23475;DHT22;11910;52.086;21.066;2024-03-17T05:02:08;6.90;99.90
23475;DHT22;11910;52.086;21.066;2024-03-17T05:04:34;7.00;99.90
23475;DHT22;11910;52.086;21.066;2024-03-17T05:07:00;7.00;99.90
23475;DHT22;11910;52.086;21.066;2024-03-17T05:09:26;6.90;99.90
23475;DHT22;11910;52.086;21.066;2024-03-17T05:11:51;6.90;99.90
23475;DHT22;11910;52.086;21.066;2024-03-17T05:14:17;6.80;99.90
23475;DHT22;11910;52.086;21.066;2024-03-17T05:16:45;6.80;99.90
23475;DHT22;11910;52.086;21.066;2024-03-17T05:19:10;6.70;99.90
23475;DHT22;11910;52.086;21.066;2024-03-17T05:21:36;6.70;99.90
23475;DHT22;11910;52.086;21.066;2024-03-17T05:24:02;6.60;99.90
23475;DHT22;11910;52.086;21.066;2024-03-17T05:26:28;6.60;99.90
23475;DHT22;11910;52.086;21.066;2024-03-17T05:28:55;6.50;99.90
23475;DHT22;11910;52.086;21.066;2024-03-17T05:31:21;6.50;99.90
23475;DHT22;11910;52.086;21.066;2024-03-17T05:33:48;6.50;99.90
23475;DHT22;11910;52.086;21.066;2024-03-17T05:36:14;6.50;99.90
23475;DHT22;11910;52.086;21.066;2024-03-17T05:38:40;6.50;99.90
23475;DHT22;11910;52.086;21.066;2024-03-17T05:41:07;6.40;99.90
23475;DHT22;11910;52.086;21.066;2024-03-17T05:43:34;6.50;99.90
23475;DHT22;11910;52.086;21.066;2024-03-17T05:46:06;6.50;99.90
23475;DHT22;11910;52.086;21.066;2024-03-17T05:48:37;6.40;99.90
23475;DHT22;11910;52.086;21.066;2024-03-17T05:51:11;6.40;99.90
23475;DHT22;11910;52.086;21.066;2024-03-17T05:53:38;6.30;99.90
23475;DHT22;11910;52.086;21.066;2024-03-17T05:56:06;6.40;99.90
23475;DHT22;11910;52.086;21.066;2024-03-17T05:58:37;6.50;99.90
23475;DHT22;11910;52.086;21.066;2024-03-17T06:01:03;6.60;99.90
23475;DHT22;11910;52.086;21.066;2024-03-17T06:03:29;6.60;99.90
23475;DHT22;11910;52.086;21.066;2024-03-17T06:05:55;6.70;99.90
23475;DHT22;11910;52.086;21.066;2024-03-17T06:08:20;6.80;99.90
23475;DHT22;11910;52.086;21.066;2024-03-17T06:10:48;6.90;99.90
23475;DHT22;11910;52.086;21.066;2024-03-17T06:13:14;6.80;99.90
23475;DHT22;11910;52.086;21.066;2024-03-17T06:15:44;6.80;99.90
23475;DHT22;11910;52.086;21.066;2024-03-17T06:18:12;6.90;99.90
23475;DHT22;11910;52.086;21.066;2024-03-17T06:20:43;6.80;99.90
23475;DHT22;11910;52.086;21.066;2024-03-17T06:23:10;6.80;99.90
23475;DHT22;11910;52.086;21.066;2024-03-17T06:25:42;6.70;99.90
23475;DHT22;11910;52.086;21.066;2024-03-17T06:28:08;6.70;99.90
23475;DHT22;11910;52.086;21.066;2024-03-17T06:30:35;6.70;99.90
23475;DHT22;11910;52.086;21.066;2024-03-17T06:33:02;6.80;99.90
23475;DHT22;11910;52.086;21.066;2024-03-17T06:35:28;6.90;99.90
23475;DHT22;11910;52.086;21.066;2024-03-17T06:37:59;7.00;99.90
23475;DHT22;11910;52.086;21.066;2024-03-17T06:40:25;7.10;99.90
23475;DHT22;11910;52.086;21.066;2024-03-17T06:42:51;7.20;99.90
23475;DHT22;11910;52.086;21.066;2024-03-17T06:45:19;7.30;99.90
23475;DHT22;11910;52.086;21.066;2024-03-17T06:47:47;7.30;99.90
23475;DHT22;11910;52.086;21.066;2024-03-17T06:50:13;7.30;99.90
23475;DHT22;11910;52.086;21.066;2024-03-17T06:52:40;7.40;99.90
23475;DHT22;11910;52.086;21.066;2024-03-17T06:55:06;7.40;99.90
23475;DHT22;11910;52.086;21.066;2024-03-17T06:57:35;7.50;99.90
23475;DHT22;11910;52.086;21.066;2024-03-17T07:00:02;7.50;99.90
23475;DHT22;11910;52.086;21.066;2024-03-17T07:02:31;7.60;99.90
23475;DHT22;11910;52.086;21.066;2024-03-17T07:04:57;7.60;99.60
23475;DHT22;11910;52.086;21.066;2024-03-17T07:07:26;7.60;99.90
23475;DHT22;11910;52.086;21.066;2024-03-17T07:09:52;7.70;99.90
23475;DHT22;11910;52.086;21.066;2024-03-17T07:12:17;7.60;99.70
23475;DHT22;11910;52.086;21.066;2024-03-17T07:14:44;7.60;99.90
23475;DHT22;11910;52.086;21.066;2024-03-17T07:17:10;7.60;99.90
23475;DHT22;11910;52.086;21.066;2024-03-17T07:19:36;7.60;99.30
23475;DHT22;11910;52.086;21.066;2024-03-17T07:22:02;7.60;99.50
23475;DHT22;11910;52.086;21.066;2024-03-17T07:24:29;7.60;99.50
23475;DHT22;11910;52.086;21.066;2024-03-17T07:26:55;7.50;99.20
23475;DHT22;11910;52.086;21.066;2024-03-17T07:29:21;7.60;99.90
23475;DHT22;11910;52.086;21.066;2024-03-17T07:31:47;7.60;99.70
23475;DHT22;11910;52.086;21.066;2024-03-17T07:34:13;7.60;99.50
23475;DHT22;11910;52.086;21.066;2024-03-17T07:36:38;7.50;99.50
23475;DHT22;11910;52.086;21.066;2024-03-17T07:39:05;7.50;99.70
23475;DHT22;11910;52.086;21.066;2024-03-17T07:41:32;7.50;99.90
23475;DHT22;11910;52.086;21.066;2024-03-17T07:43:58;7.50;99.70
23475;DHT22;11910;52.086;21.066;2024-03-17T07:46:24;7.50;99.90
23475;DHT22;11910;52.086;21.066;2024-03-17T07:48:49;7.50;99.90
23475;DHT22;11910;52.086;21.066;2024-03-17T07:51:16;7.60;99.90
23475;DHT22;11910;52.086;21.066;2024-03-17T07:53:44;7.60;99.90
23475;DHT22;11910;52.086;21.066;2024-03-17T07:56:17;7.60;99.90
23475;DHT22;11910;52.086;21.066;2024-03-17T07:58:44;7.60;99.90
23475;DHT22;11910;52.086;21.066;2024-03-17T08:01:13;7.70;99.90
23475;DHT22;11910;52.086;21.066;2024-03-17T08:03:41;7.60;99.90
23475;DHT22;11910;52.086;21.066;2024-03-17T08:06:19;7.60;99.90
23475;DHT22;11910;52.086;21.066;2024-03-17T08:08:47;7.60;99.90
23475;DHT22;11910;52.086;21.066;2024-03-17T08:11:13;7.60;99.90
23475;DHT22;11910;52.086;21.066;2024-03-17T08:13:38;7.50;99.90
23475;DHT22;11910;52.086;21.066;2024-03-17T08:16:05;7.40;99.90
23475;DHT22;11910;52.086;21.066;2024-03-17T08:18:32;7.50;99.90
23475;DHT22;11910;52.086;21.066;2024-03-17T08:21:00;7.50;99.90
23475;DHT22;11910;52.086;21.066;2024-03-17T08:23:26;7.50;99.90
23475;DHT22;11910;52.086;21.066;2024-03-17T08:25:56;7.50;99.90
23475;DHT22;11910;52.086;21.066;2024-03-17T08:28:23;7.60;99.90
23475;DHT22;11910;52.086;21.066;2024-03-17T08:31:02;7.50;99.90
23475;DHT22;11910;52.086;21.066;2024-03-17T08:33:29;7.50;99.90
23475;DHT22;11910;52.086;21.066;2024-03-17T08:36:06;7.50;99.90
23475;DHT22;11910;52.086;21.066;2024-03-17T08:38:34;7.50;99.90
23475;DHT22;11910;52.086;21.066;2024-03-17T08:43:30;7.60;99.90
23475;DHT22;11910;52.086;21.066;2024-03-17T08:48:28;7.90;99.90
23475;DHT22;11910;52.086;21.066;2024-03-17T08:50:57;7.90;99.90
23475;DHT22;11910;52.086;21.066;2024-03-17T08:53:24;7.90;99.90
23475;DHT22;11910;52.086;21.066;2024-03-17T08:55:50;7.80;99.90
23475;DHT22;11910;52.086;21.066;2024-03-17T08:58:16;7.80;99.90
23475;DHT22;11910;52.086;21.066;2024-03-17T09:00:42;7.60;99.90
23475;DHT22;11910;52.086;21.066;2024-03-17T09:03:08;7.60;99.90
23475;DHT22;11910;52.086;21.066;2024-03-17T09:05:38;7.60;99.90
23475;DHT22;11910;52.086;21.066;2024-03-17T09:08:05;7.50;99.90
23475;DHT22;11910;52.086;21.066;2024-03-17T09:10:41;7.60;99.90
23475;DHT22;11910;52.086;21.066;2024-03-17T09:13:13;7.70;99.90
23475;DHT22;11910;52.086;21.066;2024-03-17T09:15:40;7.80;99.90
23475;DHT22;11910;52.086;21.066;2024-03-17T09:18:06;7.70;99.90
23475;DHT22;11910;52.086;21.066;2024-03-17T09:20:31;7.80;99.90
23475;DHT22;11910;52.086;21.066;2024-03-17T09:22:57;7.80;99.90
23475;DHT22;11910;52.086;21.066;2024-03-17T09:25:23;7.70;99.90
23475;DHT22;11910;52.086;21.066;2024-03-17T09:27:48;7.70;99.90
23475;DHT22;11910;52.086;21.066;2024-03-17T09:30:14;7.60;99.90
23475;DHT22;11910;52.086;21.066;2024-03-17T09:32:40;7.70;99.90
23475;DHT22;11910;52.086;21.066;2024-03-17T09:35:07;7.60;99.90
23475;DHT22;11910;52.086;21.066;2024-03-17T09:37:33;7.60;99.90
23475;DHT22;11910;52.086;21.066;2024-03-17T09:39:58;7.50;99.90
23475;DHT22;11910;52.086;21.066;2024-03-17T09:42:27;7.50;99.90
23475;DHT22;11910;52.086;21.066;2024-03-17T09:44:54;7.40;99.90
23475;DHT22;11910;52.086;21.066;2024-03-17T09:47:23;7.40;99.90
23475;DHT22;11910;52.086;21.066;2024-03-17T09:49:50;7.30;99.90
23475;DHT22;11910;52.086;21.066;2024-03-17T09:52:24;7.10;99.90
23475;DHT22;11910;52.086;21.066;2024-03-17T09:55:08;7.10;99.90
23475;DHT22;11910;52.086;21.066;2024-03-17T09:57:36;6.90;99.90
23475;DHT22;11910;52.086;21.066;2024-03-17T10:00:14;7.00;99.90
23475;DHT22;11910;52.086;21.066;2024-03-17T10:02:44;7.00;99.90
23475;DHT22;11910;52.086;21.066;2024-03-17T10:05:28;7.00;99.90
23475;DHT22;11910;52.086;21.066;2024-03-17T10:07:53;6.90;99.90
23475;DHT22;11910;52.086;21.066;2024-03-17T10:10:20;6.90;99.90
23475;DHT22;11910;52.086;21.066;2024-03-17T10:12:50;6.80;99.90
23475;DHT22;11910;52.086;21.066;2024-03-17T10:15:17;6.90;99.90
23475;DHT22;11910;52.086;21.066;2024-03-17T10:17:43;6.90;99.90
23475;DHT22;11910;52.086;21.066;2024-03-17T10:20:19;7.00;99.90
23475;DHT22;11910;52.086;21.066;2024-03-17T10:23:07;7.00;99.90
23475;DHT22;11910;52.086;21.066;2024-03-17T10:25:38;7.10;99.90
23475;DHT22;11910;52.086;21.066;2024-03-17T10:28:11;7.10;99.90
23475;DHT22;11910;52.086;21.066;2024-03-17T10:30:37;7.20;99.90
23475;DHT22;11910;52.086;21.066;2024-03-17T10:33:05;7.20;99.90
23475;DHT22;11910;52.086;21.066;2024-03-17T10:35:37;7.10;99.90
23475;DHT22;11910;52.086;21.066;2024-03-17T10:38:09;7.10;99.90
23475;DHT22;11910;52.086;21.066;2024-03-17T10:40:38;7.20;99.90
23475;DHT22;11910;52.086;21.066;2024-03-17T10:43:05;7.30;99.90
23475;DHT22;11910;52.086;21.066;2024-03-17T10:45:32;7.50;99.90
23475;DHT22;11910;52.086;21.066;2024-03-17T10:48:03;7.50;99.90
23475;DHT22;11910;52.086;21.066;2024-03-17T10:50:38;7.60;99.90
23475;DHT22;11910;52.086;21.066;2024-03-17T10:53:07;7.60;99.90
23475;DHT22;11910;52.086;21.066;2024-03-17T10:55:44;7.60;99.90
23475;DHT22;11910;52.086;21.066;2024-03-17T11:00:50;7.60;99.90
23475;DHT22;11910;52.086;21.066;2024-03-17T11:03:17;7.50;99.90
23475;DHT22;11910;52.086;21.066;2024-03-17T11:05:43;7.50;99.90
23475;DHT22;11910;52.086;21.066;2024-03-17T11:08:15;7.50;99.90
23475;DHT22;11910;52.086;21.066;2024-03-17T11:10:49;7.40;99.90
23475;DHT22;11910;52.086;21.066;2024-03-17T11:13:26;7.30;99.90
23475;DHT22;11910;52.086;21.066;2024-03-17T11:15:52;7.40;99.90
23475;DHT22;11910;52.086;21.066;2024-03-17T11:23:42;7.60;99.90
23475;DHT22;11910;52.086;21.066;2024-03-17T11:26:08;7.60;99.90
23475;DHT22;11910;52.086;21.066;2024-03-17T11:28:44;7.60;99.90
23475;DHT22;11910;52.086;21.066;2024-03-17T11:34:25;7.70;99.90
23475;DHT22;11910;52.086;21.066;2024-03-17T11:36:52;7.70;99.90
23475;DHT22;11910;52.086;21.066;2024-03-17T11:39:19;7.70;99.90
23475;DHT22;11910;52.086;21.066;2024-03-17T11:41:49;7.80;99.90
23475;DHT22;11910;52.086;21.066;2024-03-17T11:51:45;7.50;99.90
23475;DHT22;11910;52.086;21.066;2024-03-17T11:54:14;7.50;99.90
23475;DHT22;11910;52.086;21.066;2024-03-17T11:56:50;7.40;99.90
23475;DHT22;11910;52.086;21.066;2024-03-17T11:59:17;7.20;99.90
23475;DHT22;11910;52.086;21.066;2024-03-17T12:01:52;7.20;99.90
23475;DHT22;11910;52.086;21.066;2024-03-17T12:04:21;7.20;99.90
23475;DHT22;11910;52.086;21.066;2024-03-17T12:06:58;7.20;99.90
23475;DHT22;11910;52.086;21.066;2024-03-17T12:14:33;7.20;99.90
23475;DHT22;11910;52.086;21.066;2024-03-17T12:17:10;7.10;99.90
23475;DHT22;11910;52.086;21.066;2024-03-17T12:19:36;7.10;99.90
23475;DHT22;11910;52.086;21.066;2024-03-17T12:22:04;7.20;99.90
23475;DHT22;11910;52.086;21.066;2024-03-17T12:24:32;7.20;99.90
23475;DHT22;11910;52.086;21.066;2024-03-17T12:26:59;7.10;99.90
23475;DHT22;11910;52.086;21.066;2024-03-17T12:31:56;7.00;99.90
23475;DHT22;11910;52.086;21.066;2024-03-17T12:34:25;7.00;99.90
23475;DHT22;11910;52.086;21.066;2024-03-17T12:36:54;6.90;99.90
23475;DHT22;11910;52.086;21.066;2024-03-17T12:39:27;6.90;99.90
23475;DHT22;11910;52.086;21.066;2024-03-17T12:42:06;6.90;99.90
23475;DHT22;11910;52.086;21.066;2024-03-17T12:47:18;6.80;99.90
23475;DHT22;11910;52.086;21.066;2024-03-17T12:50:08;6.80;99.90
23475;DHT22;11910;52.086;21.066;2024-03-17T12:52:36;6.80;99.90
23475;DHT22;11910;52.086;21.066;2024-03-17T12:55:06;6.90;99.90
23475;DHT22;11910;52.086;21.066;2024-03-17T12:58:11;7.00;99.90
23475;DHT22;11910;52.086;21.066;2024-03-17T13:01:03;6.90;99.90
23475;DHT22;11910;52.086;21.066;2024-03-17T13:03:32;7.00;99.90
23475;DHT22;11910;52.086;21.066;2024-03-17T13:06:00;7.00;99.90
23475;DHT22;11910;52.086;21.066;2024-03-17T13:08:28;7.10;99.90
23475;DHT22;11910;52.086;21.066;2024-03-17T13:10:54;7.10;99.90
23475;DHT22;11910;52.086;21.066;2024-03-17T13:13:20;7.10;99.90
23475;DHT22;11910;52.086;21.066;2024-03-17T13:15:45;7.10;99.90
23475;DHT22;11910;52.086;21.066;2024-03-17T13:18:17;7.10;99.90
23475;DHT22;11910;52.086;21.066;2024-03-17T13:20:46;7.10;99.90
23475;DHT22;11910;52.086;21.066;2024-03-17T13:23:12;7.00;99.90
23475;DHT22;11910;52.086;21.066;2024-03-17T13:25:38;7.00;99.90
23475;DHT22;11910;52.086;21.066;2024-03-17T13:28:05;7.00;99.90
23475;DHT22;11910;52.086;21.066;2024-03-17T13:30:33;7.00;99.90
23475;DHT22;11910;52.086;21.066;2024-03-17T13:33:02;7.10;99.90
23475;DHT22;11910;52.086;21.066;2024-03-17T13:35:30;7.20;99.90
23475;DHT22;11910;52.086;21.066;2024-03-17T13:37:57;7.30;99.90
23475;DHT22;11910;52.086;21.066;2024-03-17T13:40:28;7.30;99.90
23475;DHT22;11910;52.086;21.066;2024-03-17T13:42:55;7.30;99.90
23475;DHT22;11910;52.086;21.066;2024-03-17T13:45:24;7.20;99.90
23475;DHT22;11910;52.086;21.066;2024-03-17T13:48:03;7.20;99.90
23475;DHT22;11910;52.086;21.066;2024-03-17T13:50:31;7.00;99.90
23475;DHT22;11910;52.086;21.066;2024-03-17T13:52:57;7.00;99.90
23475;DHT22;11910;52.086;21.066;2024-03-17T13:55:24;7.00;99.90
23475;DHT22;11910;52.086;21.066;2024-03-17T13:57:54;6.90;99.90
23475;DHT22;11910;52.086;21.066;2024-03-17T14:00:21;6.80;99.90
23475;DHT22;11910;52.086;21.066;2024-03-17T14:02:49;6.80;99.90
23475;DHT22;11910;52.086;21.066;2024-03-17T14:05:17;6.80;99.90
23475;DHT22;11910;52.086;21.066;2024-03-17T14:07:43;6.70;99.90
23475;DHT22;11910;52.086;21.066;2024-03-17T14:10:11;6.60;99.90
23475;DHT22;11910;52.086;21.066;2024-03-17T14:12:37;6.50;99.90
23475;DHT22;11910;52.086;21.066;2024-03-17T14:15:04;6.50;99.90
23475;DHT22;11910;52.086;21.066;2024-03-17T14:17:39;6.50;99.90
23475;DHT22;11910;52.086;21.066;2024-03-17T14:20:06;6.50;99.90
23475;DHT22;11910;52.086;21.066;2024-03-17T14:22:36;6.40;99.90
23475;DHT22;11910;52.086;21.066;2024-03-17T14:25:02;6.40;99.90
23475;DHT22;11910;52.086;21.066;2024-03-17T14:27:28;6.40;99.90
23475;DHT22;11910;52.086;21.066;2024-03-17T14:29:54;6.40;99.90
23475;DHT22;11910;52.086;21.066;2024-03-17T14:32:19;6.40;99.90
23475;DHT22;11910;52.086;21.066;2024-03-17T14:34:46;6.50;99.90
23475;DHT22;11910;52.086;21.066;2024-03-17T14:37:12;6.50;99.90
23475;DHT22;11910;52.086;21.066;2024-03-17T14:39:39;6.40;99.90
23475;DHT22;11910;52.086;21.066;2024-03-17T14:42:05;6.50;99.90
23475;DHT22;11910;52.086;21.066;2024-03-17T14:44:31;6.50;99.90
23475;DHT22;11910;52.086;21.066;2024-03-17T14:46:58;6.40;99.90
23475;DHT22;11910;52.086;21.066;2024-03-17T14:49:23;6.30;99.90
23475;DHT22;11910;52.086;21.066;2024-03-17T14:51:49;6.20;99.90
23475;DHT22;11910;52.086;21.066;2024-03-17T14:54:14;6.10;99.90
23475;DHT22;11910;52.086;21.066;2024-03-17T14:56:40;6.00;99.90
23475;DHT22;11910;52.086;21.066;2024-03-17T14:59:06;5.90;99.90
23475;DHT22;11910;52.086;21.066;2024-03-17T15:01:32;5.80;99.90
23475;DHT22;11910;52.086;21.066;2024-03-17T15:03:57;5.70;99.90
23475;DHT22;11910;52.086;21.066;2024-03-17T15:06:23;5.60;99.90
23475;DHT22;11910;52.086;21.066;2024-03-17T15:08:50;5.50;99.90
23475;DHT22;11910;52.086;21.066;2024-03-17T15:11:16;5.50;99.90
23475;DHT22;11910;52.086;21.066;2024-03-17T15:13:43;5.50;99.90
23475;DHT22;11910;52.086;21.066;2024-03-17T15:16:10;5.50;99.90
23475;DHT22;11910;52.086;21.066;2024-03-17T15:18:37;5.50;99.90
23475;DHT22;11910;52.086;21.066;2024-03-17T15:21:03;5.50;99.90
23475;DHT22;11910;52.086;21.066;2024-03-17T15:23:32;5.50;99.90
23475;DHT22;11910;52.086;21.066;2024-03-17T15:26:02;5.50;99.90
23475;DHT22;11910;52.086;21.066;2024-03-17T15:28:34;5.50;99.90
23475;DHT22;11910;52.086;21.066;2024-03-17T15:31:10;5.50;99.90
23475;DHT22;11910;52.086;21.066;2024-03-17T15:33:37;5.50;99.90
23475;DHT22;11910;52.086;21.066;2024-03-17T15:36:06;5.40;99.90
23475;DHT22;11910;52.086;21.066;2024-03-17T15:38:36;5.40;99.90
23475;DHT22;11910;52.086;21.066;2024-03-17T15:41:07;5.40;99.90
23475;DHT22;11910;52.086;21.066;2024-03-17T15:43:42;5.40;99.90
23475;DHT22;11910;52.086;21.066;2024-03-17T15:46:18;5.40;99.90
23475;DHT22;11910;52.086;21.066;2024-03-17T15:48:45;5.30;99.90
23475;DHT22;11910;52.086;21.066;2024-03-17T15:51:12;5.20;99.90
23475;DHT22;11910;52.086;21.066;2024-03-17T15:53:38;5.20;99.90
23475;DHT22;11910;52.086;21.066;2024-03-17T15:56:04;5.10;99.90
23475;DHT22;11910;52.086;21.066;2024-03-17T15:58:31;4.90;99.90
23475;DHT22;11910;52.086;21.066;2024-03-17T16:00:58;4.90;99.90
23475;DHT22;11910;52.086;21.066;2024-03-17T16:03:31;5.00;99.90
23475;DHT22;11910;52.086;21.066;2024-03-17T16:06:02;5.00;99.90
23475;DHT22;11910;52.086;21.066;2024-03-17T16:08:28;5.00;99.90
23475;DHT22;11910;52.086;21.066;2024-03-17T16:10:59;4.90;99.90
23475;DHT22;11910;52.086;21.066;2024-03-17T16:13:26;5.00;99.90
23475;DHT22;11910;52.086;21.066;2024-03-17T16:15:55;5.00;99.90